sensor_id;sensor_type;location;lat;lon;timestamp;pressure;altitude;pressure_sealevel;temperature;humidity
54600;BME280;40500;51.084;16.958;2023-01-27T00:01:27;100660.18;;;0.02;100.00
54600;BME280;40500;51.084;16.958;2023-01-27T00:03:59;100658.27;;;0.02;100.00
54600;BME280;40500;51.084;16.958;2023-01-27T00:06:36;100659.53;;;0.03;100.00
54600;BME280;40500;51.084;16.958;2023-01-27T00:09:07;100657.27;;;0.03;100.00
54600;BME280;40500;51.084;16.958;2023-01-27T00:11:42;100657.10;;;0.03;100.00
54600;BME280;40500;51.084;16.958;2023-01-27T00:14:29;100649.31;;;0.01;100.00
54600;BME280;40500;51.084;16.958;2023-01-27T00:17:00;100650.37;;;0.02;100.00
54600;BME280;40500;51.084;16.958;2023-01-27T00:19:30;100652.98;;;0.02;100.00
54600;BME280;40500;51.084;16.958;2023-01-27T00:22:01;100651.10;;;0.03;100.00
54600;BME280;40500;51.084;16.958;2023-01-27T00:24:54;100645.94;;;0.03;100.00
54600;BME280;40500;51.084;16.958;2023-01-27T00:27:24;100646.96;;;0.03;100.00
54600;BME280;40500;51.084;16.958;2023-01-27T00:29:55;100649.55;;;0.03;100.00
54600;BME280;40500;51.084;16.958;2023-01-27T00:32:28;100650.41;;;0.03;100.00
54600;BME280;40500;51.084;16.958;2023-01-27T00:35:16;100651.96;;;0.04;100.00
54600;BME280;40500;51.084;16.958;2023-01-27T00:37:47;100652.83;;;0.04;100.00
54600;BME280;40500;51.084;16.958;2023-01-27T00:40:19;100653.17;;;0.04;100.00
54600;BME280;40500;51.084;16.958;2023-01-27T00:42:49;100654.36;;;0.03;100.00
54600;BME280;40500;51.084;16.958;2023-01-27T00:45:19;100663.70;;;0.04;100.00
54600;BME280;40500;51.084;16.958;2023-01-27T00:48:08;100664.87;;;0.04;100.00
54600;BME280;40500;51.084;16.958;2023-01-27T00:50:38;100668.05;;;0.06;100.00
54600;BME280;40500;51.084;16.958;2023-01-27T00:53:11;100666.85;;;0.06;100.00
54600;BME280;40500;51.084;16.958;2023-01-27T00:55:41;100668.77;;;0.07;100.00
54600;BME280;40500;51.084;16.958;2023-01-27T00:58:12;100670.84;;;0.07;100.00
54600;BME280;40500;51.084;16.958;2023-01-27T01:00:45;100672.25;;;0.08;100.00
54600;BME280;40500;51.084;16.958;2023-01-27T01:03:15;100677.27;;;0.09;100.00
54600;BME280;40500;51.084;16.958;2023-01-27T01:05:46;100675.58;;;0.10;100.00
54600;BME280;40500;51.084;16.958;2023-01-27T01:08:17;100678.02;;;0.11;100.00
54600;BME280;40500;51.084;16.958;2023-01-27T01:10:50;100679.59;;;0.11;100.00
54600;BME280;40500;51.084;16.958;2023-01-27T01:13:21;100679.30;;;0.13;100.00
54600;BME280;40500;51.084;16.958;2023-01-27T01:15:51;100680.38;;;0.14;100.00
54600;BME280;40500;51.084;16.958;2023-01-27T01:18:22;100680.24;;;0.16;100.00
54600;BME280;40500;51.084;16.958;2023-01-27T01:20:55;100678.03;;;0.17;100.00
54600;BME280;40500;51.084;16.958;2023-01-27T01:23:29;100675.85;;;0.19;100.00
54600;BME280;40500;51.084;16.958;2023-01-27T01:26:00;100674.88;;;0.21;100.00
54600;BME280;40500;51.084;16.958;2023-01-27T01:28:39;100669.09;;;0.23;100.00
54600;BME280;40500;51.084;16.958;2023-01-27T01:31:15;100671.54;;;0.24;100.00
54600;BME280;40500;51.084;16.958;2023-01-27T01:33:49;100666.06;;;0.25;100.00
54600;BME280;40500;51.084;16.958;2023-01-27T01:36:20;100663.98;;;0.25;100.00
54600;BME280;40500;51.084;16.958;2023-01-27T01:38:54;100667.61;;;0.25;100.00
54600;BME280;40500;51.084;16.958;2023-01-27T01:41:26;100662.60;;;0.25;100.00
54600;BME280;40500;51.084;16.958;2023-01-27T01:43:57;100663.30;;;0.25;100.00
54600;BME280;40500;51.084;16.958;2023-01-27T01:46:28;100664.55;;;0.27;100.00
54600;BME280;40500;51.084;16.958;2023-01-27T01:49:00;100669.56;;;0.27;100.00
54600;BME280;40500;51.084;16.958;2023-01-27T01:51:36;100666.23;;;0.26;100.00
54600;BME280;40500;51.084;16.958;2023-01-27T01:54:17;100670.09;;;0.22;100.00
54600;BME280;40500;51.084;16.958;2023-01-27T01:56:52;100665.05;;;0.20;100.00
54600;BME280;40500;51.084;16.958;2023-01-27T01:59:25;100666.05;;;0.19;100.00
54600;BME280;40500;51.084;16.958;2023-01-27T02:02:01;100666.50;;;0.17;100.00
54600;BME280;40500;51.084;16.958;2023-01-27T02:04:37;100669.21;;;0.15;100.00
54600;BME280;40500;51.084;16.958;2023-01-27T02:07:17;100663.84;;;0.14;100.00
54600;BME280;40500;51.084;16.958;2023-01-27T02:09:53;100667.98;;;0.14;100.00
54600;BME280;40500;51.084;16.958;2023-01-27T02:12:25;100672.27;;;0.15;100.00
54600;BME280;40500;51.084;16.958;2023-01-27T02:14:58;100674.70;;;0.15;100.00
54600;BME280;40500;51.084;16.958;2023-01-27T02:17:30;100673.66;;;0.15;100.00
54600;BME280;40500;51.084;16.958;2023-01-27T02:20:06;100674.67;;;0.14;100.00
54600;BME280;40500;51.084;16.958;2023-01-27T02:22:42;100674.48;;;0.13;100.00
54600;BME280;40500;51.084;16.958;2023-01-27T02:25:20;100671.16;;;0.11;100.00
54600;BME280;40500;51.084;16.958;2023-01-27T02:27:54;100670.52;;;0.08;100.00
54600;BME280;40500;51.084;16.958;2023-01-27T02:30:25;100672.61;;;0.09;100.00
54600;BME280;40500;51.084;16.958;2023-01-27T02:32:55;100673.10;;;0.08;100.00
54600;BME280;40500;51.084;16.958;2023-01-27T02:35:33;100671.00;;;0.07;100.00
54600;BME280;40500;51.084;16.958;2023-01-27T02:38:07;100673.23;;;0.07;100.00
54600;BME280;40500;51.084;16.958;2023-01-27T02:40:39;100672.03;;;0.07;100.00
54600;BME280;40500;51.084;16.958;2023-01-27T02:43:12;100669.46;;;0.07;100.00
54600;BME280;40500;51.084;16.958;2023-01-27T02:45:42;100671.52;;;0.07;100.00
54600;BME280;40500;51.084;16.958;2023-01-27T02:48:14;100675.41;;;0.05;100.00
54600;BME280;40500;51.084;16.958;2023-01-27T02:50:46;100672.31;;;0.05;100.00
54600;BME280;40500;51.084;16.958;2023-01-27T02:53:17;100676.42;;;0.04;100.00
54600;BME280;40500;51.084;16.958;2023-01-27T02:55:47;100670.19;;;0.02;100.00
54600;BME280;40500;51.084;16.958;2023-01-27T02:58:23;100669.65;;;0.02;100.00
54600;BME280;40500;51.084;16.958;2023-01-27T03:00:58;100667.67;;;-0.01;100.00
54600;BME280;40500;51.084;16.958;2023-01-27T03:03:28;100672.82;;;-0.01;100.00
54600;BME280;40500;51.084;16.958;2023-01-27T03:05:59;100672.75;;;-0.04;100.00
54600;BME280;40500;51.084;16.958;2023-01-27T03:08:30;100674.77;;;-0.05;100.00
54600;BME280;40500;51.084;16.958;2023-01-27T03:11:00;100676.77;;;-0.07;100.00
54600;BME280;40500;51.084;16.958;2023-01-27T03:13:32;100674.14;;;-0.09;100.00
54600;BME280;40500;51.084;16.958;2023-01-27T03:16:06;100677.05;;;-0.09;100.00
54600;BME280;40500;51.084;16.958;2023-01-27T03:18:55;100681.03;;;-0.09;100.00
54600;BME280;40500;51.084;16.958;2023-01-27T03:21:26;100673.50;;;-0.07;100.00
54600;BME280;40500;51.084;16.958;2023-01-27T03:23:57;100671.45;;;-0.07;100.00
54600;BME280;40500;51.084;16.958;2023-01-27T03:26:29;100674.36;;;-0.08;100.00
54600;BME280;40500;51.084;16.958;2023-01-27T03:29:00;100673.48;;;-0.08;100.00
54600;BME280;40500;51.084;16.958;2023-01-27T03:31:51;100673.99;;;-0.08;100.00
54600;BME280;40500;51.084;16.958;2023-01-27T03:34:22;100675.05;;;-0.07;100.00
54600;BME280;40500;51.084;16.958;2023-01-27T03:36:57;100667.98;;;-0.07;100.00
54600;BME280;40500;51.084;16.958;2023-01-27T03:39:46;100671.26;;;-0.08;100.00
54600;BME280;40500;51.084;16.958;2023-01-27T03:42:34;100672.10;;;-0.08;100.00
54600;BME280;40500;51.084;16.958;2023-01-27T03:45:22;100673.45;;;-0.09;100.00
54600;BME280;40500;51.084;16.958;2023-01-27T03:48:11;100673.30;;;-0.09;100.00
54600;BME280;40500;51.084;16.958;2023-01-27T03:50:42;100671.38;;;-0.09;100.00
54600;BME280;40500;51.084;16.958;2023-01-27T03:53:13;100665.13;;;-0.11;100.00
54600;BME280;40500;51.084;16.958;2023-01-27T03:55:43;100671.59;;;-0.13;100.00
54600;BME280;40500;51.084;16.958;2023-01-27T03:58:22;100669.30;;;-0.15;100.00
54600;BME280;40500;51.084;16.958;2023-01-27T04:00:54;100679.96;;;-0.15;100.00
54600;BME280;40500;51.084;16.958;2023-01-27T04:03:26;100675.97;;;-0.16;100.00
54600;BME280;40500;51.084;16.958;2023-01-27T04:06:16;100671.29;;;-0.18;100.00
54600;BME280;40500;51.084;16.958;2023-01-27T04:09:06;100673.10;;;-0.20;100.00
54600;BME280;40500;51.084;16.958;2023-01-27T04:11:38;100667.84;;;-0.23;100.00
54600;BME280;40500;51.084;16.958;2023-01-27T04:14:26;100675.91;;;-0.24;100.00
54600;BME280;40500;51.084;16.958;2023-01-27T04:16:58;100676.87;;;-0.26;100.00
54600;BME280;40500;51.084;16.958;2023-01-27T04:19:30;100671.52;;;-0.26;100.00
54600;BME280;40500;51.084;16.958;2023-01-27T04:22:01;100675.27;;;-0.28;100.00
54600;BME280;40500;51.084;16.958;2023-01-27T04:24:32;100672.10;;;-0.30;100.00
54600;BME280;40500;51.084;16.958;2023-01-27T04:27:04;100675.65;;;-0.31;100.00
54600;BME280;40500;51.084;16.958;2023-01-27T04:29:37;100682.30;;;-0.33;100.00
54600;BME280;40500;51.084;16.958;2023-01-27T04:32:10;100680.21;;;-0.34;100.00
54600;BME280;40500;51.084;16.958;2023-01-27T04:34:42;100681.39;;;-0.35;100.00
54600;BME280;40500;51.084;16.958;2023-01-27T04:37:12;100683.49;;;-0.33;100.00
54600;BME280;40500;51.084;16.958;2023-01-27T04:39:43;100682.66;;;-0.33;100.00
54600;BME280;40500;51.084;16.958;2023-01-27T04:42:14;100686.23;;;-0.34;100.00
54600;BME280;40500;51.084;16.958;2023-01-27T04:44:44;100682.63;;;-0.34;100.00
54600;BME280;40500;51.084;16.958;2023-01-27T04:47:16;100685.34;;;-0.35;100.00
54600;BME280;40500;51.084;16.958;2023-01-27T04:49:46;100686.02;;;-0.35;100.00
54600;BME280;40500;51.084;16.958;2023-01-27T04:52:16;100684.81;;;-0.35;100.00
54600;BME280;40500;51.084;16.958;2023-01-27T04:54:50;100685.14;;;-0.36;100.00
54600;BME280;40500;51.084;16.958;2023-01-27T04:57:21;100685.64;;;-0.36;100.00
54600;BME280;40500;51.084;16.958;2023-01-27T04:59:52;100689.31;;;-0.34;100.00
54600;BME280;40500;51.084;16.958;2023-01-27T05:02:22;100691.08;;;-0.33;100.00
54600;BME280;40500;51.084;16.958;2023-01-27T05:04:54;100692.16;;;-0.32;100.00
54600;BME280;40500;51.084;16.958;2023-01-27T05:07:25;100690.63;;;-0.31;100.00
54600;BME280;40500;51.084;16.958;2023-01-27T05:09:55;100684.92;;;-0.32;100.00
54600;BME280;40500;51.084;16.958;2023-01-27T05:12:26;100688.67;;;-0.33;100.00
54600;BME280;40500;51.084;16.958;2023-01-27T05:14:56;100696.37;;;-0.34;100.00
54600;BME280;40500;51.084;16.958;2023-01-27T05:17:31;100696.87;;;-0.35;100.00
54600;BME280;40500;51.084;16.958;2023-01-27T05:20:01;100698.39;;;-0.35;100.00
54600;BME280;40500;51.084;16.958;2023-01-27T05:22:32;100705.13;;;-0.35;100.00
54600;BME280;40500;51.084;16.958;2023-01-27T05:25:03;100704.45;;;-0.34;100.00
54600;BME280;40500;51.084;16.958;2023-01-27T05:27:34;100709.40;;;-0.36;100.00
54600;BME280;40500;51.084;16.958;2023-01-27T05:30:06;100716.41;;;-0.37;100.00
54600;BME280;40500;51.084;16.958;2023-01-27T05:32:37;100718.28;;;-0.37;100.00
54600;BME280;40500;51.084;16.958;2023-01-27T05:35:08;100717.25;;;-0.38;100.00
54600;BME280;40500;51.084;16.958;2023-01-27T05:37:41;100722.24;;;-0.37;100.00
54600;BME280;40500;51.084;16.958;2023-01-27T05:40:13;100715.36;;;-0.37;100.00
54600;BME280;40500;51.084;16.958;2023-01-27T05:42:46;100717.77;;;-0.38;100.00
54600;BME280;40500;51.084;16.958;2023-01-27T05:45:16;100721.89;;;-0.38;100.00
54600;BME280;40500;51.084;16.958;2023-01-27T05:47:50;100723.62;;;-0.38;100.00
54600;BME280;40500;51.084;16.958;2023-01-27T05:50:20;100724.65;;;-0.38;100.00
54600;BME280;40500;51.084;16.958;2023-01-27T05:52:51;100725.92;;;-0.36;100.00
54600;BME280;40500;51.084;16.958;2023-01-27T05:55:22;100725.58;;;-0.36;100.00
54600;BME280;40500;51.084;16.958;2023-01-27T05:57:52;100728.79;;;-0.37;100.00
54600;BME280;40500;51.084;16.958;2023-01-27T06:00:24;100728.27;;;-0.37;100.00
54600;BME280;40500;51.084;16.958;2023-01-27T06:02:54;100729.54;;;-0.36;100.00
54600;BME280;40500;51.084;16.958;2023-01-27T06:05:25;100731.98;;;-0.34;100.00
54600;BME280;40500;51.084;16.958;2023-01-27T06:07:56;100735.83;;;-0.33;100.00
54600;BME280;40500;51.084;16.958;2023-01-27T06:10:26;100738.14;;;-0.31;100.00
54600;BME280;40500;51.084;16.958;2023-01-27T06:12:57;100743.86;;;-0.30;100.00
54600;BME280;40500;51.084;16.958;2023-01-27T06:15:28;100745.07;;;-0.30;100.00
54600;BME280;40500;51.084;16.958;2023-01-27T06:17:59;100746.45;;;-0.29;100.00
54600;BME280;40500;51.084;16.958;2023-01-27T06:20:29;100749.20;;;-0.29;100.00
54600;BME280;40500;51.084;16.958;2023-01-27T06:23:00;100752.62;;;-0.30;100.00
54600;BME280;40500;51.084;16.958;2023-01-27T06:25:36;100751.92;;;-0.30;100.00
54600;BME280;40500;51.084;16.958;2023-01-27T06:28:08;100758.90;;;-0.27;100.00
54600;BME280;40500;51.084;16.958;2023-01-27T06:30:43;100759.45;;;-0.27;100.00
54600;BME280;40500;51.084;16.958;2023-01-27T06:33:13;100761.21;;;-0.25;100.00
54600;BME280;40500;51.084;16.958;2023-01-27T06:35:44;100758.09;;;-0.26;100.00
54600;BME280;40500;51.084;16.958;2023-01-27T06:38:14;100756.98;;;-0.28;100.00
54600;BME280;40500;51.084;16.958;2023-01-27T06:40:44;100757.82;;;-0.29;100.00
54600;BME280;40500;51.084;16.958;2023-01-27T06:43:24;100761.22;;;-0.30;100.00
54600;BME280;40500;51.084;16.958;2023-01-27T06:45:55;100767.05;;;-0.31;100.00
54600;BME280;40500;51.084;16.958;2023-01-27T06:48:27;100767.52;;;-0.32;100.00
54600;BME280;40500;51.084;16.958;2023-01-27T06:54:04;100762.45;;;-0.34;100.00
54600;BME280;40500;51.084;16.958;2023-01-27T06:56:35;100762.30;;;-0.34;100.00
54600;BME280;40500;51.084;16.958;2023-01-27T06:59:06;100764.55;;;-0.33;100.00
54600;BME280;40500;51.084;16.958;2023-01-27T07:01:40;100763.95;;;-0.31;100.00
54600;BME280;40500;51.084;16.958;2023-01-27T07:04:11;100760.38;;;-0.30;100.00
54600;BME280;40500;51.084;16.958;2023-01-27T07:06:45;100765.31;;;-0.26;100.00
54600;BME280;40500;51.084;16.958;2023-01-27T07:09:16;100766.05;;;-0.25;100.00
54600;BME280;40500;51.084;16.958;2023-01-27T07:11:46;100765.05;;;-0.24;100.00
54600;BME280;40500;51.084;16.958;2023-01-27T07:14:17;100765.44;;;-0.23;100.00
54600;BME280;40500;51.084;16.958;2023-01-27T07:16:47;100761.42;;;-0.24;100.00
54600;BME280;40500;51.084;16.958;2023-01-27T07:19:17;100760.21;;;-0.24;100.00
54600;BME280;40500;51.084;16.958;2023-01-27T07:21:48;100764.55;;;-0.23;100.00
54600;BME280;40500;51.084;16.958;2023-01-27T07:24:18;100767.47;;;-0.23;100.00
54600;BME280;40500;51.084;16.958;2023-01-27T07:26:49;100763.54;;;-0.22;100.00
54600;BME280;40500;51.084;16.958;2023-01-27T07:29:19;100767.84;;;-0.23;100.00
54600;BME280;40500;51.084;16.958;2023-01-27T07:31:50;100770.83;;;-0.21;100.00
54600;BME280;40500;51.084;16.958;2023-01-27T07:34:20;100773.45;;;-0.19;100.00
54600;BME280;40500;51.084;16.958;2023-01-27T07:36:51;100776.04;;;-0.19;100.00
54600;BME280;40500;51.084;16.958;2023-01-27T07:39:22;100774.20;;;-0.18;100.00
54600;BME280;40500;51.084;16.958;2023-01-27T07:41:54;100776.83;;;-0.16;100.00
54600;BME280;40500;51.084;16.958;2023-01-27T07:44:25;100780.89;;;-0.13;100.00
54600;BME280;40500;51.084;16.958;2023-01-27T07:46:58;100785.55;;;-0.13;100.00
54600;BME280;40500;51.084;16.958;2023-01-27T07:49:28;100780.94;;;-0.12;100.00
54600;BME280;40500;51.084;16.958;2023-01-27T07:52:01;100786.15;;;-0.11;100.00
54600;BME280;40500;51.084;16.958;2023-01-27T07:54:31;100780.36;;;-0.09;100.00
54600;BME280;40500;51.084;16.958;2023-01-27T07:57:02;100784.00;;;-0.08;100.00
54600;BME280;40500;51.084;16.958;2023-01-27T07:59:32;100783.34;;;-0.07;100.00
54600;BME280;40500;51.084;16.958;2023-01-27T08:02:02;100781.67;;;-0.05;100.00
54600;BME280;40500;51.084;16.958;2023-01-27T08:04:33;100783.13;;;-0.03;100.00
54600;BME280;40500;51.084;16.958;2023-01-27T08:07:20;100785.77;;;-0.01;100.00
54600;BME280;40500;51.084;16.958;2023-01-27T08:09:51;100786.34;;;0.01;100.00
54600;BME280;40500;51.084;16.958;2023-01-27T08:12:22;100782.61;;;0.03;100.00
54600;BME280;40500;51.084;16.958;2023-01-27T08:14:53;100777.83;;;0.04;100.00
54600;BME280;40500;51.084;16.958;2023-01-27T08:17:23;100783.59;;;0.06;100.00
54600;BME280;40500;51.084;16.958;2023-01-27T08:19:53;100784.79;;;0.11;100.00
54600;BME280;40500;51.084;16.958;2023-01-27T08:22:24;100786.41;;;0.14;100.00
54600;BME280;40500;51.084;16.958;2023-01-27T08:24:54;100784.54;;;0.14;100.00
54600;BME280;40500;51.084;16.958;2023-01-27T08:27:25;100785.96;;;0.15;100.00
54600;BME280;40500;51.084;16.958;2023-01-27T08:29:55;100790.33;;;0.17;100.00
54600;BME280;40500;51.084;16.958;2023-01-27T08:32:25;100794.30;;;0.18;100.00
54600;BME280;40500;51.084;16.958;2023-01-27T08:34:56;100794.19;;;0.19;100.00
54600;BME280;40500;51.084;16.958;2023-01-27T08:37:26;100793.70;;;0.21;100.00
54600;BME280;40500;51.084;16.958;2023-01-27T08:39:56;100799.44;;;0.22;100.00
54600;BME280;40500;51.084;16.958;2023-01-27T08:42:27;100797.73;;;0.23;100.00
54600;BME280;40500;51.084;16.958;2023-01-27T08:44:58;100801.04;;;0.24;100.00
54600;BME280;40500;51.084;16.958;2023-01-27T08:47:28;100799.33;;;0.24;100.00
54600;BME280;40500;51.084;16.958;2023-01-27T08:49:59;100804.70;;;0.25;100.00
54600;BME280;40500;51.084;16.958;2023-01-27T08:52:29;100803.44;;;0.23;100.00
54600;BME280;40500;51.084;16.958;2023-01-27T08:55:01;100805.38;;;0.25;100.00
54600;BME280;40500;51.084;16.958;2023-01-27T08:57:31;100811.98;;;0.27;100.00
54600;BME280;40500;51.084;16.958;2023-01-27T09:00:07;100810.63;;;0.28;100.00
54600;BME280;40500;51.084;16.958;2023-01-27T09:02:38;100806.77;;;0.30;100.00
54600;BME280;40500;51.084;16.958;2023-01-27T09:05:09;100807.37;;;0.33;100.00
54600;BME280;40500;51.084;16.958;2023-01-27T09:07:40;100808.52;;;0.32;100.00
54600;BME280;40500;51.084;16.958;2023-01-27T09:10:12;100808.60;;;0.34;100.00
54600;BME280;40500;51.084;16.958;2023-01-27T09:12:44;100810.85;;;0.34;100.00
54600;BME280;40500;51.084;16.958;2023-01-27T09:15:15;100809.86;;;0.35;100.00
54600;BME280;40500;51.084;16.958;2023-01-27T09:17:45;100812.55;;;0.38;100.00
54600;BME280;40500;51.084;16.958;2023-01-27T09:20:16;100819.11;;;0.39;100.00
54600;BME280;40500;51.084;16.958;2023-01-27T09:22:48;100822.06;;;0.40;100.00
54600;BME280;40500;51.084;16.958;2023-01-27T09:25:18;100827.59;;;0.41;100.00
54600;BME280;40500;51.084;16.958;2023-01-27T09:27:49;100826.20;;;0.41;100.00
54600;BME280;40500;51.084;16.958;2023-01-27T09:30:23;100830.34;;;0.40;100.00
54600;BME280;40500;51.084;16.958;2023-01-27T09:32:58;100827.89;;;0.40;100.00
54600;BME280;40500;51.084;16.958;2023-01-27T09:35:34;100836.03;;;0.41;100.00
54600;BME280;40500;51.084;16.958;2023-01-27T09:38:06;100836.27;;;0.43;100.00
54600;BME280;40500;51.084;16.958;2023-01-27T09:40:49;100835.63;;;0.44;100.00
54600;BME280;40500;51.084;16.958;2023-01-27T09:43:45;100843.63;;;0.47;100.00
54600;BME280;40500;51.084;16.958;2023-01-27T09:46:31;100842.14;;;0.49;100.00
54600;BME280;40500;51.084;16.958;2023-01-27T09:49:18;100844.25;;;0.50;100.00
54600;BME280;40500;51.084;16.958;2023-01-27T09:52:08;100845.89;;;0.52;100.00
54600;BME280;40500;51.084;16.958;2023-01-27T09:54:50;100841.72;;;0.57;100.00
54600;BME280;40500;51.084;16.958;2023-01-27T09:57:31;100844.07;;;0.61;100.00
54600;BME280;40500;51.084;16.958;2023-01-27T10:00:14;100840.86;;;0.62;100.00
54600;BME280;40500;51.084;16.958;2023-01-27T10:03:10;100840.17;;;0.62;100.00
54600;BME280;40500;51.084;16.958;2023-01-27T10:05:56;100837.40;;;0.62;100.00
54600;BME280;40500;51.084;16.958;2023-01-27T10:08:42;100836.80;;;0.60;100.00
54600;BME280;40500;51.084;16.958;2023-01-27T10:11:26;100832.64;;;0.59;100.00
54600;BME280;40500;51.084;16.958;2023-01-27T10:14:11;100829.61;;;0.60;100.00
54600;BME280;40500;51.084;16.958;2023-01-27T10:16:55;100829.34;;;0.63;100.00
54600;BME280;40500;51.084;16.958;2023-01-27T10:19:40;100829.51;;;0.63;100.00
54600;BME280;40500;51.084;16.958;2023-01-27T10:22:18;100826.39;;;0.63;100.00
54600;BME280;40500;51.084;16.958;2023-01-27T10:25:01;100824.80;;;0.62;100.00
54600;BME280;40500;51.084;16.958;2023-01-27T10:27:37;100828.21;;;0.60;100.00
54600;BME280;40500;51.084;16.958;2023-01-27T10:30:14;100827.90;;;0.61;100.00
54600;BME280;40500;51.084;16.958;2023-01-27T10:32:54;100831.87;;;0.62;100.00
54600;BME280;40500;51.084;16.958;2023-01-27T10:35:34;100832.90;;;0.62;100.00
54600;BME280;40500;51.084;16.958;2023-01-27T10:38:15;100832.25;;;0.63;100.00
54600;BME280;40500;51.084;16.958;2023-01-27T10:40:52;100831.93;;;0.63;100.00
54600;BME280;40500;51.084;16.958;2023-01-27T10:43:34;100829.58;;;0.65;100.00
54600;BME280;40500;51.084;16.958;2023-01-27T10:46:13;100826.20;;;0.67;100.00
54600;BME280;40500;51.084;16.958;2023-01-27T10:48:48;100830.73;;;0.69;100.00
54600;BME280;40500;51.084;16.958;2023-01-27T10:51:23;100828.88;;;0.70;100.00
54600;BME280;40500;51.084;16.958;2023-01-27T10:53:59;100837.66;;;0.71;100.00
54600;BME280;40500;51.084;16.958;2023-01-27T10:56:35;100833.88;;;0.70;100.00
54600;BME280;40500;51.084;16.958;2023-01-27T10:59:13;100834.09;;;0.72;100.00
54600;BME280;40500;51.084;16.958;2023-01-27T11:01:47;100834.30;;;0.73;100.00
54600;BME280;40500;51.084;16.958;2023-01-27T11:04:26;100835.02;;;0.74;100.00
54600;BME280;40500;51.084;16.958;2023-01-27T11:07:00;100836.61;;;0.76;100.00
54600;BME280;40500;51.084;16.958;2023-01-27T11:09:34;100829.50;;;0.74;100.00
54600;BME280;40500;51.084;16.958;2023-01-27T11:12:10;100830.69;;;0.74;100.00
54600;BME280;40500;51.084;16.958;2023-01-27T11:14:46;100829.21;;;0.76;100.00
54600;BME280;40500;51.084;16.958;2023-01-27T11:17:26;100831.09;;;0.75;100.00
54600;BME280;40500;51.084;16.958;2023-01-27T11:20:01;100827.39;;;0.72;100.00
54600;BME280;40500;51.084;16.958;2023-01-27T11:22:43;100829.94;;;0.72;100.00
54600;BME280;40500;51.084;16.958;2023-01-27T11:25:26;100831.38;;;0.73;100.00
54600;BME280;40500;51.084;16.958;2023-01-27T11:28:04;100827.25;;;0.74;100.00
54600;BME280;40500;51.084;16.958;2023-01-27T11:30:41;100827.99;;;0.75;100.00
54600;BME280;40500;51.084;16.958;2023-01-27T11:33:24;100827.18;;;0.77;100.00
54600;BME280;40500;51.084;16.958;2023-01-27T11:35:57;100825.98;;;0.77;100.00
54600;BME280;40500;51.084;16.958;2023-01-27T11:38:29;100825.52;;;0.78;100.00
54600;BME280;40500;51.084;16.958;2023-01-27T11:41:02;100828.13;;;0.80;100.00
54600;BME280;40500;51.084;16.958;2023-01-27T11:43:33;100827.92;;;0.79;100.00
54600;BME280;40500;51.084;16.958;2023-01-27T11:46:09;100827.42;;;0.79;100.00
54600;BME280;40500;51.084;16.958;2023-01-27T11:48:43;100824.29;;;0.78;100.00
54600;BME280;40500;51.084;16.958;2023-01-27T11:51:19;100830.35;;;0.79;100.00
54600;BME280;40500;51.084;16.958;2023-01-27T11:53:58;100828.50;;;0.81;100.00
54600;BME280;40500;51.084;16.958;2023-01-27T11:56:33;100831.92;;;0.80;100.00
54600;BME280;40500;51.084;16.958;2023-01-27T11:59:07;100830.69;;;0.79;100.00
54600;BME280;40500;51.084;16.958;2023-01-27T12:01:43;100833.25;;;0.78;100.00
54600;BME280;40500;51.084;16.958;2023-01-27T12:04:21;100833.50;;;0.75;100.00
54600;BME280;40500;51.084;16.958;2023-01-27T12:06:55;100828.94;;;0.73;100.00
54600;BME280;40500;51.084;16.958;2023-01-27T12:09:34;100836.80;;;0.70;100.00
54600;BME280;40500;51.084;16.958;2023-01-27T12:12:18;100831.42;;;0.69;100.00
54600;BME280;40500;51.084;16.958;2023-01-27T12:14:50;100826.92;;;0.68;100.00
54600;BME280;40500;51.084;16.958;2023-01-27T12:17:27;100829.96;;;0.67;100.00
54600;BME280;40500;51.084;16.958;2023-01-27T12:20:04;100824.77;;;0.65;100.00
54600;BME280;40500;51.084;16.958;2023-01-27T12:22:37;100822.69;;;0.66;100.00
54600;BME280;40500;51.084;16.958;2023-01-27T12:25:17;100821.33;;;0.66;100.00
54600;BME280;40500;51.084;16.958;2023-01-27T12:27:52;100819.67;;;0.69;100.00
54600;BME280;40500;51.084;16.958;2023-01-27T12:30:25;100818.77;;;0.73;100.00
54600;BME280;40500;51.084;16.958;2023-01-27T12:32:58;100815.96;;;0.76;100.00
54600;BME280;40500;51.084;16.958;2023-01-27T12:35:33;100814.38;;;0.76;100.00
54600;BME280;40500;51.084;16.958;2023-01-27T12:38:06;100819.05;;;0.76;100.00
54600;BME280;40500;51.084;16.958;2023-01-27T12:40:43;100819.13;;;0.78;100.00
54600;BME280;40500;51.084;16.958;2023-01-27T12:43:16;100819.90;;;0.82;100.00
54600;BME280;40500;51.084;16.958;2023-01-27T12:46:04;100816.42;;;0.87;100.00
54600;BME280;40500;51.084;16.958;2023-01-27T12:48:34;100819.30;;;0.90;100.00
54600;BME280;40500;51.084;16.958;2023-01-27T12:51:18;100815.00;;;0.90;100.00
54600;BME280;40500;51.084;16.958;2023-01-27T12:53:50;100815.39;;;0.92;100.00
54600;BME280;40500;51.084;16.958;2023-01-27T12:56:22;100817.65;;;0.93;100.00
54600;BME280;40500;51.084;16.958;2023-01-27T12:58:58;100820.56;;;0.92;100.00
54600;BME280;40500;51.084;16.958;2023-01-27T13:01:32;100827.11;;;0.92;100.00
54600;BME280;40500;51.084;16.958;2023-01-27T13:04:09;100826.80;;;0.94;100.00
54600;BME280;40500;51.084;16.958;2023-01-27T13:06:45;100832.14;;;0.93;100.00
54600;BME280;40500;51.084;16.958;2023-01-27T13:09:26;100832.84;;;0.94;100.00
54600;BME280;40500;51.084;16.958;2023-01-27T13:12:00;100833.58;;;0.95;100.00
54600;BME280;40500;51.084;16.958;2023-01-27T13:14:37;100831.38;;;0.97;100.00